Time;durP1;ratioP1;P1;durP2;ratioP2;P2;SDS_P1;SDS_P2;PMS_P1;PMS_P2;Temp;Humidity;BMP_temperature;BMP_pressure;BME280_temperature;BME280_humidity;BME280_pressure;Samples;Min_cycle;Max_cycle;Signal;HPM_P1;HPM_P2
2021/12/05 00:18:04;;;;;;;16.30;8.40;;;28.20;87.40;;;;;;5050059;28;20071;-50
2021/12/05 00:23:19;;;;;;;30.23;20.30;;;28.20;87.40;;;;;;5066607;28;20051;-53
2021/12/05 00:25:51;;;;;;;32.97;20.23;;;28.20;87.60;;;;;;5064725;28;20028;-51
2021/12/05 00:41:58;;;;;;;35.63;24.00;;;28.20;87.70;;;;;;5044107;28;20075;-52
2021/12/05 01:09:16;;;;;;;16.85;13.00;;;28.10;88.00;;;;;;5044554;28;20014;-56
2021/12/05 01:16:46;;;;;;;14.57;8.75;;;28.00;87.80;;;;;;5044981;28;20018;-50
2021/12/05 01:19:16;;;;;;;12.02;7.95;;;28.00;87.90;;;;;;5044731;28;20068;-50
2021/12/05 01:21:45;;;;;;;13.05;7.57;;;28.00;87.80;;;;;;5044865;28;20085;-50
2021/12/05 01:30:11;;;;;;;9.02;6.72;;;27.90;87.70;;;;;;5003506;28;20085;-51
2021/12/05 01:40:43;;;;;;;11.77;5.97;;;27.90;87.40;;;;;;5044264;28;20028;-51
2021/12/05 01:52:07;;;;;;;31.00;6.93;;;27.80;86.90;;;;;;5044353;28;20025;-51
2021/12/05 01:54:03;;;;;;;21.15;6.80;;;27.80;86.80;;;;;;5037274;28;20068;-50
2021/12/05 02:32:23;;;;;;;17.20;11.27;;;27.70;86.60;;;;;;5063909;28;20024;-51
2021/12/05 02:40:21;;;;;;;13.70;8.70;;;27.70;86.50;;;;;;5063535;28;20321;-52
2021/12/05 02:43:08;;;;;;;13.50;8.30;;;27.70;86.50;;;;;;5064058;28;20039;-52
2021/12/05 02:45:37;;;;;;;14.45;7.13;;;27.60;86.60;;;;;;5063647;28;20009;-53
2021/12/05 02:48:05;;;;;;;14.30;7.38;;;27.60;86.60;;;;;;5064086;28;20028;-51
2021/12/05 02:50:33;;;;;;;15.90;8.48;;;27.60;86.80;;;;;;5063956;28;20059;-52
2021/12/05 02:53:27;;;;;;;16.13;9.57;;;27.60;86.90;;;;;;5063879;28;20163;-52
2021/12/05 02:55:52;;;;;;;20.92;11.13;;;27.60;87.10;;;;;;5063704;28;20044;-53
2021/12/05 03:03:29;;;;;;;15.20;7.68;;;27.60;87.60;;;;;;5063395;28;20329;-53
2021/12/05 03:06:04;;;;;;;14.50;8.45;;;27.60;87.50;;;;;;5063447;28;20135;-52
2021/12/05 03:08:31;;;;;;;12.27;7.30;;;27.60;87.50;;;;;;5063514;28;20017;-52
2021/12/05 03:10:59;;;;;;;11.45;6.88;;;27.60;87.50;;;;;;5063225;28;20028;-52
2021/12/05 03:13:27;;;;;;;11.85;7.22;;;27.60;87.40;;;;;;5062346;28;20198;-53
2021/12/05 03:15:56;;;;;;;16.00;9.10;;;27.50;87.30;;;;;;5063458;28;20217;-52
2021/12/05 03:18:24;;;;;;;17.20;9.25;;;27.50;87.30;;;;;;5063613;28;20024;-52
2021/12/05 03:20:51;;;;;;;13.43;8.43;;;27.50;87.30;;;;;;5063206;28;20305;-51
2021/12/05 03:23:17;;;;;;;11.40;7.47;;;27.50;87.80;;;;;;5063423;28;20025;-54
2021/12/05 03:25:44;;;;;;;11.40;6.50;;;27.50;87.40;;;;;;5063063;28;20017;-53
2021/12/05 03:28:11;;;;;;;15.10;6.57;;;27.40;87.40;;;;;;5063284;28;20025;-53
2021/12/05 03:30:38;;;;;;;10.20;5.82;;;27.40;87.30;;;;;;5064552;28;20032;-52
2021/12/05 03:33:05;;;;;;;8.88;5.32;;;27.40;87.80;;;;;;5067465;28;20021;-58
2021/12/05 03:35:32;;;;;;;10.73;5.18;;;27.40;87.20;;;;;;5067082;28;20021;-53
2021/12/05 03:37:59;;;;;;;10.25;5.22;;;27.40;87.00;;;;;;5067390;28;20240;-53
2021/12/05 03:40:29;;;;;;;10.43;5.05;;;27.40;86.90;;;;;;5066139;28;20070;-52
2021/12/05 03:43:00;;;;;;;9.07;5.20;;;27.30;86.70;;;;;;5067180;28;20127;-53
2021/12/05 03:45:31;;;;;;;12.18;5.18;;;27.30;86.70;;;;;;5066803;28;20178;-51
2021/12/05 03:47:59;;;;;;;9.30;4.78;;;27.30;86.70;;;;;;5067197;28;20058;-53
2021/12/05 03:50:26;;;;;;;13.35;5.10;;;27.20;86.70;;;;;;5066799;28;20044;-52
2021/12/05 03:52:53;;;;;;;7.43;4.95;;;27.30;86.70;;;;;;5066965;28;20029;-55
2021/12/05 03:55:20;;;;;;;9.63;5.20;;;27.20;86.80;;;;;;5066677;28;20044;-52
2021/12/05 03:57:47;;;;;;;10.30;4.90;;;27.20;87.00;;;;;;5066546;28;20032;-53
2021/12/05 04:00:35;;;;;;;10.48;4.80;;;27.20;87.20;;;;;;5066257;28;20047;-53
2021/12/05 04:03:05;;;;;;;13.00;5.43;;;27.20;87.30;;;;;;5066887;28;20212;-53
2021/12/05 04:05:34;;;;;;;11.13;4.95;;;27.20;87.30;;;;;;5065761;28;20084;-50
2021/12/05 04:08:06;;;;;;;11.10;5.30;;;27.20;87.30;;;;;;5066827;28;20025;-54
2021/12/05 04:10:33;;;;;;;;;;;27.20;87.40;;;;;;5066835;28;20021;-55
2021/12/05 04:13:00;;;;;;;10.82;5.45;;;27.20;87.50;;;;;;5066655;28;19951;-52
2021/12/05 04:15:27;;;;;;;11.27;4.90;;;27.20;87.70;;;;;;5066324;28;20013;-52
2021/12/05 04:17:54;;;;;;;9.25;4.93;;;27.10;87.80;;;;;;5066796;28;20336;-53
2021/12/05 04:20:22;;;;;;;9.32;5.20;;;27.10;87.80;;;;;;5065938;28;20027;-54
2021/12/05 04:22:49;;;;;;;8.60;4.85;;;27.20;87.90;;;;;;5066563;28;20029;-52
2021/12/05 04:25:17;;;;;;;9.77;4.93;;;27.10;87.90;;;;;;5066080;28;20012;-54
2021/12/05 04:27:46;;;;;;;10.32;5.22;;;27.10;87.90;;;;;;5066277;28;20033;-52
2021/12/05 04:30:15;;;;;;;7.72;4.45;;;27.10;88.00;;;;;;5066149;28;20031;-53
2021/12/05 04:32:42;;;;;;;7.20;4.00;;;27.10;88.10;;;;;;5066319;28;20025;-54
2021/12/05 04:35:09;;;;;;;10.68;4.50;;;27.10;88.20;;;;;;5065800;28;20024;-53
2021/12/05 04:37:36;;;;;;;10.18;4.18;;;27.10;88.10;;;;;;5066260;28;20343;-56
2021/12/05 04:40:05;;;;;;;9.40;4.03;;;27.10;88.20;;;;;;5065747;28;20095;-56
2021/12/05 04:42:32;;;;;;;7.40;4.82;;;27.10;88.20;;;;;;5065297;28;20325;-52
2021/12/05 04:45:01;;;;;;;9.55;4.40;;;27.00;88.20;;;;;;5065722;28;20123;-54
2021/12/05 04:47:28;;;;;;;8.52;4.40;;;27.00;88.30;;;;;;5065526;28;20200;-50
2021/12/05 04:49:55;;;;;;;7.15;3.92;;;27.00;88.50;;;;;;5065496;28;20051;-52
2021/12/05 04:52:22;;;;;;;9.70;3.92;;;27.00;88.40;;;;;;5065862;28;20033;-53
2021/12/05 04:54:48;;;;;;;10.68;3.80;;;26.90;88.40;;;;;;5065554;28;20020;-52
2021/12/05 04:57:15;;;;;;;7.85;4.00;;;26.90;88.40;;;;;;5065545;28;20021;-51
2021/12/05 04:59:47;;;;;;;7.47;4.10;;;26.90;88.50;;;;;;5065411;28;20049;-53
2021/12/05 05:02:14;;;;;;;8.93;4.30;;;26.90;88.50;;;;;;5065582;28;20228;-52
2021/12/05 05:04:49;;;;;;;14.00;4.35;;;26.90;88.50;;;;;;5065288;28;20017;-51
2021/12/05 05:07:24;;;;;;;9.75;4.82;;;26.80;88.50;;;;;;5065580;28;20048;-53
2021/12/05 05:10:06;;;;;;;10.00;4.80;;;26.90;88.50;;;;;;5065168;28;20059;-56
2021/12/05 05:12:32;;;;;;;10.18;4.47;;;26.90;88.40;;;;;;5065698;28;20025;-55
2021/12/05 05:14:59;;;;;;;7.38;4.43;;;26.80;88.50;;;;;;5065099;28;20062;-52
2021/12/05 05:17:26;;;;;;;9.80;5.18;;;26.80;88.60;;;;;;5065691;28;20025;-52
2021/12/05 05:19:59;;;;;;;10.73;5.65;;;26.80;88.80;;;;;;5065019;28;20040;-52
2021/12/05 05:38:58;;;;;;;13.95;6.93;;;26.80;89.00;;;;;;5049360;28;20037;-52
2021/12/05 05:47:27;;;;;;;9.35;5.93;;;26.60;88.60;;;;;;5064892;28;20056;-53
2021/12/05 05:49:58;;;;;;;10.38;5.57;;;26.60;88.70;;;;;;5064382;28;20220;-52
2021/12/05 05:52:27;;;;;;;8.10;5.40;;;26.60;88.80;;;;;;5064546;28;20020;-53
2021/12/05 05:54:57;;;;;;;8.90;4.90;;;26.60;88.80;;;;;;5064074;28;20362;-54
2021/12/05 05:57:27;;;;;;;10.93;4.65;;;26.60;88.90;;;;;;5064838;28;20095;-57
2021/12/05 06:00:12;;;;;;;9.48;4.72;;;26.60;89.00;;;;;;5064096;28;20051;-52
2021/12/05 06:05:25;;;;;;;11.40;4.78;;;26.60;88.90;;;;;;5064337;28;20047;-53
2021/12/05 06:07:52;;;;;;;10.45;4.32;;;26.60;88.80;;;;;;5064707;28;20183;-52
2021/12/05 06:10:23;;;;;;;10.25;4.70;;;26.60;88.80;;;;;;5064150;28;20093;-54
2021/12/05 06:12:50;;;;;;;10.88;4.38;;;26.50;88.80;;;;;;5063951;28;20028;-56
2021/12/05 06:15:19;;;;;;;10.77;4.10;;;26.60;88.90;;;;;;5064211;28;20025;-52
2021/12/05 06:17:46;;;;;;;8.57;5.00;;;26.50;88.80;;;;;;5064490;28;20106;-51
2021/12/05 06:20:16;;;;;;;13.10;5.72;;;26.50;88.60;;;;;;5063902;28;20035;-53
2021/12/05 06:22:44;;;;;;;11.25;6.05;;;26.50;88.50;;;;;;5064347;28;20070;-56
2021/12/05 06:25:17;;;;;;;11.35;6.35;;;26.50;88.60;;;;;;5063920;28;20309;-52
2021/12/05 06:27:44;;;;;;;13.35;6.22;;;26.40;88.60;;;;;;5064138;28;20087;-52
2021/12/05 06:30:16;;;;;;;13.75;7.15;;;26.40;88.50;;;;;;5063845;28;20173;-53
2021/12/05 06:46:17;;;;;;;11.32;5.45;;;26.30;87.40;;;;;;5063687;28;20076;-53
2021/12/05 06:48:45;;;;;;;7.85;4.97;;;26.40;87.50;;;;;;5063492;28;20309;-52
2021/12/05 06:51:15;;;;;;;9.60;4.68;;;26.30;87.40;;;;;;5063653;28;20112;-53
2021/12/05 06:53:42;;;;;;;8.55;4.50;;;26.30;87.20;;;;;;5063704;28;20131;-55
2021/12/05 06:56:09;;;;;;;11.77;4.85;;;26.30;87.20;;;;;;5063522;28;20048;-57
2021/12/05 06:58:36;;;;;;;13.23;6.20;;;26.30;87.30;;;;;;5063505;28;20031;-57
2021/12/05 07:01:06;;;;;;;11.30;6.55;;;26.30;87.30;;;;;;5063526;28;20029;-57
2021/12/05 07:03:34;;;;;;;12.82;6.55;;;26.30;87.30;;;;;;5063473;28;20024;-52
2021/12/05 07:06:09;;;;;;;8.45;5.75;;;26.30;87.10;;;;;;5067307;28;20016;-53
2021/12/05 07:08:38;;;;;;;12.40;5.53;;;26.30;87.20;;;;;;5067530;28;20024;-55
2021/12/05 07:11:26;;;;;;;7.50;4.50;;;26.30;87.10;;;;;;5067513;28;20093;-53
2021/12/05 07:19:06;;;;;;;8.90;4.20;;;26.20;86.90;;;;;;5067434;28;20321;-53
2021/12/05 07:21:41;;;;;;;7.88;4.35;;;26.20;86.80;;;;;;5067019;28;20037;-52
2021/12/05 07:40:26;;;;;;;12.00;3.50;;;26.10;86.80;;;;;;5066834;28;20055;-52
2021/12/05 07:42:56;;;;;;;9.10;3.78;;;26.10;86.70;;;;;;5067406;28;20048;-53
2021/12/05 07:45:32;;;;;;;8.25;3.45;;;26.00;86.50;;;;;;5066954;28;20118;-53
2021/12/05 07:48:08;;;;;;;7.47;3.10;;;26.00;86.40;;;;;;5067220;28;20305;-59
2021/12/05 07:56:47;;;;;;;6.93;2.95;;;26.00;85.90;;;;;;5057775;28;20052;-53
2021/12/05 08:15:40;;;;;;;6.93;3.42;;;25.90;85.50;;;;;;5066072;28;20024;-52
2021/12/05 08:18:07;;;;;;;7.82;3.50;;;25.90;85.30;;;;;;5066503;28;20111;-52
2021/12/05 08:20:37;;;;;;;6.95;3.22;;;25.80;85.20;;;;;;5066237;28;20324;-51
2021/12/05 08:23:05;;;;;;;9.85;3.65;;;25.80;85.10;;;;;;5066694;28;20028;-52
2021/12/05 08:25:35;;;;;;;8.27;3.65;;;25.80;84.40;;;;;;5066130;28;20049;-53
2021/12/05 08:31:13;;;;;;;5.70;3.00;;;25.80;84.30;;;;;;5046682;28;20210;-58
2021/12/05 08:36:33;;;;;;;6.65;3.70;;;25.80;84.00;;;;;;5065296;28;20013;-51
2021/12/05 09:52:18;;;;;;;9.18;4.60;;;25.60;85.50;;;;;;5064786;28;20020;-52
2021/12/05 10:08:38;;;;;;;11.80;3.80;;;25.50;85.30;;;;;;5064786;28;20232;-54
2021/12/05 10:11:18;;;;;;;5.43;3.20;;;25.50;85.40;;;;;;5064014;28;20029;-53
2021/12/05 10:38:49;;;;;;;10.05;3.80;;;25.50;84.50;;;;;;5063772;28;20021;-56
2021/12/05 10:41:23;;;;;;;8.93;3.55;;;25.50;84.50;;;;;;5063638;28;20093;-53
2021/12/05 10:43:56;;;;;;;8.85;3.50;;;25.50;84.40;;;;;;5063708;28;20025;-55
2021/12/05 10:46:25;;;;;;;9.15;3.67;;;25.40;84.90;;;;;;5063869;28;20294;-54
2021/12/05 10:48:57;;;;;;;9.73;3.30;;;25.40;84.30;;;;;;5063483;28;20028;-56
2021/12/05 10:51:28;;;;;;;8.75;3.15;;;25.40;84.10;;;;;;5063824;28;20025;-53
2021/12/05 10:53:55;;;;;;;9.73;4.32;;;25.40;84.10;;;;;;5062997;28;20331;-54
2021/12/05 10:56:28;;;;;;;8.10;4.88;;;25.40;84.20;;;;;;5063594;28;20110;-56
2021/12/05 10:59:01;;;;;;;9.70;4.22;;;25.40;84.10;;;;;;5063153;28;20086;-53
2021/12/05 11:01:40;;;;;;;10.65;4.22;;;25.40;84.00;;;;;;5063053;28;20048;-53
2021/12/05 11:04:13;;;;;;;10.95;4.13;;;25.40;84.10;;;;;;5061770;28;20017;-54
2021/12/05 11:06:53;;;;;;;8.60;4.03;;;25.40;84.00;;;;;;5061790;28;20028;-61
2021/12/05 11:09:23;;;;;;;10.88;3.90;;;25.40;84.00;;;;;;5062108;28;20028;-52
2021/12/05 11:12:00;;;;;;;17.65;4.00;;;25.40;83.90;;;;;;5061849;28;20075;-52
2021/12/05 11:14:57;;;;;;;10.95;3.95;;;25.40;84.00;;;;;;5062060;28;20048;-51
2021/12/05 11:17:28;;;;;;;13.52;4.18;;;25.40;84.10;;;;;;5063017;28;20035;-52
2021/12/05 11:20:09;;;;;;;10.07;4.20;;;25.40;84.30;;;;;;5063350;28;20017;-51
2021/12/05 11:22:45;;;;;;;15.40;4.20;;;25.40;84.30;;;;;;5063715;28;20033;-53
2021/12/05 11:25:21;;;;;;;12.35;4.28;;;25.50;84.10;;;;;;5063410;28;20036;-54
2021/12/05 11:27:52;;;;;;;7.47;3.97;;;25.50;84.20;;;;;;5063641;28;20052;-53
2021/12/05 11:30:37;;;;;;;12.02;3.95;;;25.50;84.10;;;;;;5063359;28;20017;-52
2021/12/05 11:33:18;;;;;;;7.60;3.42;;;25.50;83.90;;;;;;5063722;28;20182;-53
2021/12/05 11:35:54;;;;;;;14.60;3.85;;;25.50;83.70;;;;;;5063284;28;20024;-53
2021/12/05 11:38:24;;;;;;;13.65;5.10;;;25.60;84.00;;;;;;5063292;28;20067;-56
2021/12/05 11:41:06;;;;;;;12.43;4.80;;;25.60;83.80;;;;;;5063068;28;20025;-58
2021/12/05 11:44:04;;;;;;;13.63;5.32;;;25.60;83.90;;;;;;5063020;28;20023;-55
2021/12/05 11:46:36;;;;;;;13.90;4.40;;;25.70;83.90;;;;;;5019703;28;20082;-55
2021/12/05 11:49:08;;;;;;;16.90;4.22;;;25.70;83.80;;;;;;5063097;28;20021;-55
2021/12/05 11:51:51;;;;;;;14.43;4.50;;;25.70;83.80;;;;;;5064387;28;20033;-61
2021/12/05 11:54:24;;;;;;;11.13;4.80;;;25.70;83.60;;;;;;5067026;28;20213;-58
2021/12/05 11:56:53;;;;;;;11.75;4.40;;;25.70;83.60;;;;;;5066692;28;20219;-57
2021/12/05 11:59:20;;;;;;;8.90;4.47;;;25.80;83.40;;;;;;5066364;28;20047;-57
2021/12/05 12:02:14;;;;;;;9.43;3.72;;;25.80;83.50;;;;;;5066648;28;20037;-57
2021/12/05 12:05:03;;;;;;;10.98;3.53;;;25.80;83.30;;;;;;5066488;28;20100;-52
2021/12/05 12:07:35;;;;;;;9.95;3.70;;;25.80;83.30;;;;;;5052246;28;20037;-56
2021/12/05 12:10:25;;;;;;;7.32;3.20;;;25.90;83.50;;;;;;5066458;28;20017;-58
2021/12/05 12:12:56;;;;;;;8.57;3.35;;;25.90;83.40;;;;;;5066606;28;20033;-57
2021/12/05 12:15:25;;;;;;;8.02;3.70;;;25.90;83.30;;;;;;5066609;28;20013;-54
2021/12/05 12:17:55;;;;;;;12.00;3.33;;;26.00;83.30;;;;;;5066773;28;20304;-52
2021/12/05 12:20:25;;;;;;;7.10;2.92;;;26.00;82.90;;;;;;5066277;28;20084;-53
2021/12/05 12:22:54;;;;;;;7.32;2.67;;;26.00;82.60;;;;;;5066399;28;20029;-52
2021/12/05 12:25:25;;;;;;;4.90;2.75;;;26.00;82.60;;;;;;5066222;28;20016;-51
2021/12/05 12:27:52;;;;;;;7.18;2.80;;;26.10;82.50;;;;;;5066448;28;20031;-52
2021/12/05 12:30:26;;;;;;;4.70;2.92;;;26.10;82.40;;;;;;5066043;28;20119;-56
2021/12/05 12:33:20;;;;;;;6.13;2.85;;;26.10;82.10;;;;;;5065862;28;20033;-54
2021/12/05 12:35:49;;;;;;;7.82;2.80;;;26.20;82.20;;;;;;5065959;28;20363;-57
2021/12/05 12:38:40;;;;;;;6.53;2.72;;;26.20;82.00;;;;;;5066486;28;20060;-53
2021/12/05 12:41:21;;;;;;;6.88;2.75;;;26.20;81.90;;;;;;5065325;28;20413;-56
2021/12/05 12:44:00;;;;;;;9.45;2.88;;;26.20;82.00;;;;;;5065910;28;20024;-59
2021/12/05 12:46:26;;;;;;;6.68;2.63;;;26.30;81.70;;;;;;5065590;28;20036;-58
2021/12/05 12:48:58;;;;;;;5.90;2.80;;;26.30;82.00;;;;;;5065616;28;20059;-56
2021/12/05 12:51:51;;;;;;;4.00;2.78;;;26.30;82.10;;;;;;5065924;28;20028;-57
2021/12/05 12:54:33;;;;;;;7.75;2.60;;;26.30;82.70;;;;;;5057251;28;20040;-54
2021/12/05 12:57:31;;;;;;;4.80;2.60;;;26.40;82.60;;;;;;5065604;28;20131;-54
2021/12/05 13:00:15;;;;;;;6.00;2.90;;;26.40;82.80;;;;;;5065226;28;20100;-56
2021/12/05 13:03:01;;;;;;;8.07;3.03;;;26.40;83.40;;;;;;5065659;28;20376;-53
2021/12/05 13:11:21;;;;;;;11.07;5.63;;;26.50;84.20;;;;;;5065438;28;20374;-52
2021/12/05 13:14:04;;;;;;;20.10;11.15;;;26.50;84.30;;;;;;5065167;28;20025;-59
2021/12/05 13:16:34;;;;;;;18.33;8.63;;;26.60;84.70;;;;;;5065157;28;20029;-52
2021/12/05 13:19:18;;;;;;;16.55;8.10;;;26.60;84.20;;;;;;5064939;28;20046;-53
2021/12/05 13:21:49;;;;;;;20.83;4.63;;;26.60;84.00;;;;;;5064827;28;20056;-56
2021/12/05 13:24:23;;;;;;;17.55;4.40;;;26.60;83.70;;;;;;5064806;28;20024;-57
2021/12/05 13:26:51;;;;;;;12.02;3.83;;;26.60;83.60;;;;;;5065046;28;20084;-53
2021/12/05 13:29:19;;;;;;;27.85;4.25;;;26.60;82.80;;;;;;5064914;28;20017;-57
2021/12/05 13:32:05;;;;;;;14.50;3.35;;;26.70;82.00;;;;;;5064832;28;20044;-53
2021/12/05 13:34:49;;;;;;;12.90;3.50;;;26.70;81.80;;;;;;5064707;28;20032;-53
2021/12/05 13:37:16;;;;;;;7.82;3.33;;;26.80;81.60;;;;;;5065078;28;20028;-57
2021/12/05 13:39:48;;;;;;;6.63;2.75;;;26.80;81.30;;;;;;5064681;28;20025;-53
2021/12/05 13:42:16;;;;;;;;;;;26.90;81.80;;;;;;5064875;28;20032;-56
2021/12/05 13:45:00;;;;;;;7.70;2.78;;;26.90;80.90;;;;;;5064469;28;19909;-58
2021/12/05 13:47:51;;;;;;;5.05;2.67;;;26.90;80.80;;;;;;5064750;28;20017;-53
2021/12/05 13:50:18;;;;;;;8.00;2.83;;;27.00;81.00;;;;;;5064756;28;20029;-51
2021/12/05 13:52:52;;;;;;;12.98;3.17;;;27.00;81.30;;;;;;5064964;28;20016;-54
2021/12/05 13:55:42;;;;;;;9.23;3.00;;;27.10;81.60;;;;;;5064461;28;20070;-51
2021/12/05 13:58:18;;;;;;;7.47;2.80;;;27.10;81.50;;;;;;5063241;28;20304;-55
2021/12/05 14:01:08;;;;;;;9.98;2.90;;;27.10;81.90;;;;;;5062524;28;20037;-56
2021/12/05 14:03:56;;;;;;;8.80;2.90;;;27.20;81.40;;;;;;5025454;28;20033;-51
2021/12/05 14:06:41;;;;;;;7.72;2.63;;;27.20;80.80;;;;;;5062778;28;20020;-53
2021/12/05 14:09:31;;;;;;;7.68;2.83;;;27.20;80.20;;;;;;5062981;28;20076;-50
2021/12/05 14:12:06;;;;;;;5.72;2.70;;;27.30;80.20;;;;;;5063307;28;20025;-57
2021/12/05 14:14:38;;;;;;;6.93;2.80;;;27.30;80.00;;;;;;5063503;28;20062;-52
2021/12/05 14:17:12;;;;;;;6.97;2.60;;;27.30;79.80;;;;;;5064198;28;20029;-51
2021/12/05 14:19:41;;;;;;;10.18;2.75;;;27.30;78.60;;;;;;5064221;28;20331;-54
2021/12/05 14:22:11;;;;;;;3.92;2.60;;;27.40;79.20;;;;;;5064222;28;20041;-53
2021/12/05 14:24:41;;;;;;;8.05;2.63;;;27.40;79.30;;;;;;5063946;28;20340;-51
2021/12/05 14:27:11;;;;;;;5.72;2.55;;;27.40;80.00;;;;;;5063888;28;20104;-54
2021/12/05 14:29:40;;;;;;;8.77;3.05;;;27.50;79.80;;;;;;5063821;28;20012;-58
2021/12/05 14:32:09;;;;;;;5.22;2.85;;;27.50;79.80;;;;;;5064200;28;20029;-52
2021/12/05 14:34:36;;;;;;;4.63;2.38;;;27.50;79.80;;;;;;5063367;28;20071;-52
2021/12/05 14:37:12;;;;;;;7.07;2.60;;;27.60;79.50;;;;;;5063044;28;21009;-55
2021/12/05 14:39:47;;;;;;;6.35;2.50;;;27.60;79.40;;;;;;5061038;28;20017;-48
2021/12/05 14:42:18;;;;;;;18.25;3.20;;;27.60;78.50;;;;;;5061119;28;20036;-51
2021/12/05 14:44:48;;;;;;;15.85;3.40;;;27.70;78.70;;;;;;5063124;28;20068;-50
2021/12/05 14:47:21;;;;;;;14.60;2.92;;;27.70;79.70;;;;;;5062294;28;20024;-50
2021/12/05 14:50:05;;;;;;;12.07;3.13;;;27.70;80.00;;;;;;5055067;28;20040;-50
2021/12/05 14:52:35;;;;;;;12.50;2.90;;;27.80;79.90;;;;;;5064272;28;20025;-50
2021/12/05 14:55:04;;;;;;;11.55;2.45;;;27.80;78.90;;;;;;5063491;28;20021;-52
2021/12/05 14:57:40;;;;;;;10.25;2.58;;;27.80;77.10;;;;;;5064120;28;20028;-50
2021/12/05 15:00:18;;;;;;;9.70;2.92;;;27.90;76.70;;;;;;5063372;28;20048;-51
2021/12/05 15:02:45;;;;;;;10.80;2.42;;;27.80;76.40;;;;;;5063963;28;20032;-52
2021/12/05 15:05:15;;;;;;;10.63;3.00;;;27.90;76.70;;;;;;5063628;28;20016;-50
2021/12/05 15:07:43;;;;;;;7.30;3.10;;;27.90;77.50;;;;;;5063793;28;20067;-49
2021/12/05 15:10:11;;;;;;;9.73;2.88;;;27.90;78.70;;;;;;5063303;28;20017;-49
2021/12/05 15:12:37;;;;;;;14.05;2.67;;;27.90;79.10;;;;;;5063932;28;20075;-52
2021/12/05 15:15:12;;;;;;;10.20;3.10;;;28.00;80.60;;;;;;5063240;28;20247;-53
2021/12/05 15:17:41;;;;;;;7.28;3.00;;;28.10;79.90;;;;;;5063815;28;20036;-50
2021/12/05 15:20:12;;;;;;;13.80;3.00;;;28.10;78.90;;;;;;5062022;28;20017;-51
2021/12/05 15:22:43;;;;;;;8.30;3.20;;;28.10;79.50;;;;;;5055928;28;20025;-50
2021/12/05 15:25:17;;;;;;;10.77;3.60;;;28.10;79.00;;;;;;5059181;28;20080;-53
2021/12/05 15:27:45;;;;;;;9.35;3.65;;;28.10;78.70;;;;;;5065501;28;20025;-53
2021/12/05 15:30:12;;;;;;;12.30;3.75;;;28.20;77.20;;;;;;5066895;28;20017;-57
2021/12/05 15:32:39;;;;;;;10.23;3.63;;;28.30;77.20;;;;;;5066943;28;20017;-49
2021/12/05 15:35:11;;;;;;;10.88;3.97;;;28.30;77.80;;;;;;5062393;28;20235;-50
2021/12/05 15:37:37;;;;;;;9.97;3.90;;;28.40;77.70;;;;;;5064361;28;20024;-49
2021/12/05 15:40:06;;;;;;;10.98;5.20;;;28.40;77.60;;;;;;5068296;28;20054;-49
2021/12/05 15:42:37;;;;;;;12.77;4.93;;;28.40;77.70;;;;;;5065012;28;20053;-46
2021/12/05 15:45:11;;;;;;;9.43;4.30;;;28.40;77.80;;;;;;5065452;28;20024;-50
2021/12/05 15:47:39;;;;;;;11.23;4.18;;;28.40;78.10;;;;;;5063214;28;20040;-49
2021/12/05 15:50:17;;;;;;;9.88;4.43;;;28.50;78.90;;;;;;5065653;28;20016;-49
2021/12/05 15:53:05;;;;;;;9.10;4.00;;;28.50;79.40;;;;;;5064189;28;20021;-51
2021/12/05 15:55:41;;;;;;;13.40;4.53;;;28.50;79.50;;;;;;5064923;28;20028;-55
2021/12/05 15:58:10;;;;;;;13.30;4.45;;;28.50;79.30;;;;;;5064631;28;20021;-56
2021/12/05 16:00:41;;;;;;;10.57;4.40;;;28.60;80.00;;;;;;5065227;28;20052;-52
2021/12/05 16:03:11;;;;;;;11.93;4.23;;;28.60;79.00;;;;;;5062515;28;20017;-55
2021/12/05 16:05:40;;;;;;;13.88;4.70;;;28.60;79.20;;;;;;5062667;28;20009;-49
2021/12/05 16:08:16;;;;;;;7.18;3.75;;;28.60;79.50;;;;;;5065847;28;20021;-51
2021/12/05 16:10:51;;;;;;;10.77;3.78;;;28.60;78.50;;;;;;5062803;28;20017;-49
2021/12/05 16:13:29;;;;;;;13.30;3.97;;;28.70;79.70;;;;;;5061581;28;20045;-49
2021/12/05 16:16:05;;;;;;;11.27;4.32;;;28.70;79.60;;;;;;5066073;28;20021;-52
2021/12/05 16:18:35;;;;;;;10.45;4.30;;;28.80;81.00;;;;;;5065607;28;20029;-50
2021/12/05 16:21:05;;;;;;;11.93;4.10;;;28.90;80.50;;;;;;5053074;28;20128;-54
2021/12/05 16:23:35;;;;;;;15.55;4.80;;;28.80;80.60;;;;;;5045247;28;20044;-49
2021/12/05 16:26:09;;;;;;;15.27;4.82;;;28.80;80.30;;;;;;5045434;28;20021;-51
2021/12/05 16:28:37;;;;;;;9.80;4.55;;;28.80;79.90;;;;;;5044331;28;20025;-50
2021/12/05 16:31:24;;;;;;;13.40;4.57;;;28.80;79.10;;;;;;5044782;28;20018;-52
2021/12/05 16:33:56;;;;;;;14.40;4.85;;;28.80;79.20;;;;;;5045008;28;20080;-50
2021/12/05 16:36:30;;;;;;;14.30;4.10;;;28.90;80.00;;;;;;5045139;28;20021;-51
2021/12/05 16:39:03;;;;;;;9.15;4.60;;;28.90;80.10;;;;;;5044198;28;20029;-49
2021/12/05 16:41:33;;;;;;;10.23;4.82;;;28.90;79.90;;;;;;5045375;28;20034;-51
2021/12/05 16:44:09;;;;;;;13.65;4.63;;;28.90;79.70;;;;;;5045771;28;20032;-49
2021/12/05 16:46:40;;;;;;;11.65;4.65;;;28.90;79.30;;;;;;5045728;28;20030;-48
2021/12/05 16:49:19;;;;;;;31.85;5.45;;;29.10;78.80;;;;;;5045701;28;20309;-49
2021/12/05 16:51:57;;;;;;;16.10;4.97;;;29.00;79.30;;;;;;5045664;28;20043;-49
2021/12/05 16:54:34;;;;;;;13.20;4.43;;;29.00;79.60;;;;;;5045257;28;20025;-49
2021/12/05 16:57:09;;;;;;;13.13;4.60;;;29.00;80.00;;;;;;5057307;28;20029;-48
2021/12/05 16:59:43;;;;;;;12.55;4.80;;;28.90;80.60;;;;;;5064620;28;20395;-48
2021/12/05 17:02:24;;;;;;;16.75;5.05;;;29.00;80.50;;;;;;5065566;28;20086;-49
2021/12/05 17:05:04;;;;;;;33.10;4.88;;;29.10;80.70;;;;;;5064050;28;20044;-48
2021/12/05 17:07:40;;;;;;;19.42;4.57;;;29.10;81.10;;;;;;5065348;28;20092;-48
2021/12/05 17:10:21;;;;;;;12.32;4.55;;;29.10;81.00;;;;;;5064883;28;20127;-42
2021/12/05 17:12:50;;;;;;;17.17;4.95;;;29.20;81.70;;;;;;5060783;28;20025;-45
2021/12/05 17:15:19;;;;;;;18.00;4.95;;;29.10;81.50;;;;;;5061796;28;20084;-48
2021/12/05 17:17:49;;;;;;;22.23;4.97;;;29.20;82.10;;;;;;5063285;28;20021;-45
2021/12/05 17:20:19;;;;;;;19.83;4.57;;;29.20;82.90;;;;;;5060337;28;20024;-53
2021/12/05 17:23:06;;;;;;;18.48;4.82;;;29.20;83.40;;;;;;5059740;28;20028;-47
2021/12/05 17:25:40;;;;;;;19.55;5.07;;;29.30;84.00;;;;;;5064726;28;20017;-44
2021/12/05 17:28:11;;;;;;;13.15;4.47;;;29.20;85.00;;;;;;5064857;28;20028;-44
2021/12/05 17:30:49;;;;;;;13.65;4.43;;;29.20;85.40;;;;;;5064733;28;20036;-49
2021/12/05 17:33:44;;;;;;;27.05;5.00;;;29.10;85.60;;;;;;5064787;28;20043;-44
2021/12/05 17:36:16;;;;;;;19.67;4.70;;;29.10;85.40;;;;;;5064532;28;20308;-45
2021/12/05 17:38:42;;;;;;;16.50;4.50;;;29.00;85.50;;;;;;5064551;28;20329;-43
2021/12/05 17:41:09;;;;;;;20.45;6.22;;;28.90;85.70;;;;;;5064369;28;20275;-46
2021/12/05 17:43:36;;;;;;;16.00;5.45;;;28.90;86.20;;;;;;5061998;28;20108;-42
2021/12/05 17:46:05;;;;;;;15.02;5.43;;;28.80;86.40;;;;;;5065155;28;20087;-50
2021/12/05 17:48:33;;;;;;;13.13;4.20;;;28.80;86.10;;;;;;5063906;28;20033;-51
2021/12/05 17:51:04;;;;;;;14.55;4.53;;;28.80;85.80;;;;;;5063936;28;20017;-49
2021/12/05 17:53:33;;;;;;;29.52;16.85;;;28.90;85.80;;;;;;5062176;28;20088;-52
2021/12/05 17:56:11;;;;;;;16.77;10.15;;;28.80;85.90;;;;;;5060855;28;20048;-51
2021/12/05 18:03:57;;;;;;;13.63;4.22;;;28.80;85.60;;;;;;5062134;28;20209;-41
2021/12/05 18:06:24;;;;;;;8.93;3.83;;;28.70;85.80;;;;;;5062849;28;20017;-51
2021/12/05 18:08:51;;;;;;;9.15;3.80;;;28.70;86.20;;;;;;5063449;28;20028;-49
2021/12/05 18:11:24;;;;;;;32.03;5.20;;;28.80;86.10;;;;;;5064151;28;20020;-48
2021/12/05 18:13:55;;;;;;;43.28;5.38;;;28.80;86.30;;;;;;5063988;28;20033;-44
2021/12/05 18:16:24;;;;;;;29.40;5.03;;;28.80;86.70;;;;;;5064130;28;20028;-50
2021/12/05 18:19:03;;;;;;;47.97;5.70;;;28.80;86.30;;;;;;5063975;28;20036;-45
2021/12/05 18:21:33;;;;;;;35.50;4.78;;;28.80;86.00;;;;;;5064058;28;20029;-46
2021/12/05 18:24:00;;;;;;;18.73;4.22;;;28.80;86.00;;;;;;5063823;28;20028;-46
2021/12/05 18:26:27;;;;;;;21.67;3.88;;;28.80;85.80;;;;;;5063796;28;20088;-44
2021/12/05 18:28:54;;;;;;;15.95;4.20;;;28.80;85.90;;;;;;5063643;28;20079;-45
2021/12/05 18:31:25;;;;;;;18.58;4.10;;;28.70;86.10;;;;;;5064073;28;20308;-46
2021/12/05 18:34:01;;;;;;;16.10;4.10;;;28.70;86.10;;;;;;5063702;28;20102;-45
2021/12/05 18:36:30;;;;;;;28.73;4.65;;;28.70;86.10;;;;;;5063585;28;20221;-49
2021/12/05 18:38:58;;;;;;;25.15;4.60;;;28.80;86.30;;;;;;5063589;28;20104;-45
2021/12/05 18:41:28;;;;;;;70.90;6.25;;;28.80;86.20;;;;;;5063709;28;20024;-47
2021/12/05 18:43:57;;;;;;;127.38;9.02;;;28.80;86.20;;;;;;5063608;28;20025;-45
2021/12/05 18:46:24;;;;;;;145.10;9.68;;;28.70;87.30;;;;;;5063679;28;20297;-49
2021/12/05 18:49:10;;;;;;;107.40;7.60;;;28.70;87.50;;;;;;5063679;28;20079;-46
2021/12/05 18:51:37;;;;;;;38.38;4.70;;;28.70;87.30;;;;;;5041761;28;20025;-43